createdAt,value
2019-06-07T00:00:26.001Z,0.30
2019-06-07T00:02:36.221Z,0.20
2019-06-07T00:05:07.632Z,0.30
2019-06-07T00:10:04.216Z,0.20
2019-06-07T00:12:32.309Z,0.20
2019-06-07T00:15:00.475Z,0.30
2019-06-07T00:17:28.718Z,0.40
2019-06-07T00:19:56.879Z,0.30
2019-06-07T00:22:33.013Z,0.20
2019-06-07T00:24:54.795Z,0.20
2019-06-07T00:27:22.923Z,0.20
2019-06-07T00:29:51.177Z,0.30
2019-06-07T00:32:21.978Z,0.40
2019-06-07T00:34:49.146Z,0.30
2019-06-07T00:37:22.574Z,0.30
2019-06-07T00:39:59.473Z,0.30
2019-06-07T00:42:20.920Z,0.40
2019-06-07T00:44:47.475Z,0.30
2019-06-07T00:47:16.534Z,0.30
2019-06-07T00:49:45.424Z,0.30
2019-06-07T00:53:07.056Z,0.37
2019-06-07T00:54:43.459Z,0.28
2019-06-07T00:57:12.495Z,0.30
2019-06-07T00:59:41.302Z,0.30
2019-06-07T01:02:09.499Z,0.20
2019-06-07T01:04:37.682Z,0.30
2019-06-07T01:07:05.849Z,0.28
2019-06-07T01:09:34.074Z,0.30
2019-06-07T01:12:02.278Z,0.40
2019-06-07T01:14:30.485Z,0.20
2019-06-07T01:17:20.155Z,0.20
2019-06-07T01:19:28.397Z,0.23
2019-06-07T01:21:56.559Z,0.30
2019-06-07T01:24:25.848Z,0.20
2019-06-07T01:26:54.123Z,0.20
2019-06-07T01:29:24.214Z,0.20
2019-06-07T01:31:51.983Z,0.20
2019-06-07T01:34:21.142Z,0.30
2019-06-07T01:36:49.904Z,0.20
2019-06-07T01:39:21.057Z,0.20
2019-06-07T01:41:48.841Z,0.20
2019-06-07T01:44:18.524Z,0.20
2019-06-07T01:46:46.724Z,0.20
2019-06-07T01:49:14.841Z,0.30
2019-06-07T01:51:42.995Z,0.10
2019-06-07T01:54:49.437Z,0.13
2019-06-07T01:56:40.957Z,0.20
2019-06-07T01:59:09.098Z,0.20
2019-06-07T02:01:37.188Z,0.20
2019-06-07T02:04:05.595Z,0.20
2019-06-07T02:06:33.972Z,0.20
2019-06-07T02:09:03.500Z,0.20
2019-06-07T02:11:33.461Z,0.17
2019-06-07T02:14:01.777Z,0.20
2019-06-07T02:16:32.530Z,0.10
2019-06-07T02:19:01.969Z,0.30
2019-06-07T02:21:33.403Z,0.20
2019-06-07T02:23:59.315Z,0.20
2019-06-07T02:26:30.026Z,0.20
2019-06-07T02:28:57.272Z,0.20
2019-06-07T02:31:28.685Z,0.15
2019-06-07T02:33:55.295Z,0.20
2019-06-07T02:36:28.818Z,0.20
2019-06-07T02:38:53.229Z,0.10
2019-06-07T02:41:25.822Z,0.20
2019-06-07T02:43:51.166Z,0.25
2019-06-07T02:46:30.596Z,0.20
2019-06-07T02:48:53.605Z,0.30
2019-06-07T02:51:26.511Z,0.40
2019-06-07T02:53:51.990Z,0.33
2019-06-07T02:56:39.078Z,0.30
2019-06-07T02:58:50.304Z,0.30
2019-06-07T03:01:18.462Z,0.40
2019-06-07T03:03:46.989Z,0.30
2019-06-07T03:06:15.293Z,0.23
2019-06-07T03:08:45.197Z,0.30
2019-06-07T03:11:14.810Z,0.30
2019-06-07T03:13:44.421Z,0.30
2019-06-07T03:16:14.211Z,0.20
2019-06-07T03:18:53.147Z,0.35
2019-06-07T03:21:29.918Z,0.50
2019-06-07T03:23:59.205Z,0.30
2019-06-07T03:26:27.768Z,0.35
2019-06-07T03:28:57.241Z,0.20
2019-06-07T03:31:28.502Z,0.30
2019-06-07T03:33:56.733Z,0.30
2019-06-07T03:36:26.033Z,0.33
2019-06-07T03:38:54.720Z,0.30
2019-06-07T03:41:23.033Z,0.30
2019-06-07T03:43:51.207Z,0.28
2019-06-07T03:46:19.428Z,0.35
2019-06-07T03:48:47.517Z,0.40
2019-06-07T03:51:24.676Z,0.30
2019-06-07T03:53:45.385Z,0.30
2019-06-07T03:56:13.950Z,0.30
2019-06-07T03:58:49.553Z,0.30
2019-06-07T04:01:13.096Z,0.30
2019-06-07T04:03:50.718Z,0.35
2019-06-07T04:06:11.094Z,0.30
2019-06-07T04:08:42.138Z,0.50
2019-06-07T04:11:10.095Z,0.40
2019-06-07T04:13:42.475Z,0.30
2019-06-07T04:16:07.959Z,0.28
2019-06-07T04:18:40.160Z,0.30
2019-06-07T04:21:05.822Z,0.40
2019-06-07T04:23:37.602Z,0.30
2019-06-07T04:26:03.777Z,0.47
2019-06-07T04:29:26.731Z,0.50
2019-06-07T04:31:02.335Z,0.35
2019-06-07T04:33:31.215Z,0.30
2019-06-07T04:36:00.169Z,0.40
2019-06-07T04:38:31.983Z,0.23
2019-06-07T04:40:59.973Z,0.40
2019-06-07T04:43:30.233Z,0.80
2019-06-07T04:46:00.623Z,0.40
2019-06-07T04:48:30.899Z,0.50
2019-06-07T04:50:59.736Z,0.50
2019-06-07T04:53:30.072Z,0.60
2019-06-07T04:55:57.590Z,0.80
2019-06-07T04:58:25.684Z,0.80
2019-06-07T05:01:02.554Z,0.80
2019-06-07T05:03:24.005Z,0.75
2019-06-07T05:05:52.162Z,0.80
2019-06-07T05:08:28.253Z,0.70
2019-06-07T05:10:50.116Z,0.90
2019-06-07T05:13:18.200Z,0.85
2019-06-07T05:15:46.374Z,0.70
2019-06-07T05:18:14.521Z,0.70
2019-06-07T05:20:44.553Z,0.80
2019-06-07T05:23:59.518Z,1.00
2019-06-07T05:25:44.765Z,1.10
2019-06-07T05:28:13.203Z,1.02
2019-06-07T05:33:11.157Z,1.20
2019-06-07T05:35:41.826Z,1.22
2019-06-07T05:38:09.339Z,0.95
2019-06-07T05:40:40.130Z,1.37
2019-06-07T05:43:09.864Z,0.90
2019-06-07T05:45:42.634Z,0.98
2019-06-07T05:48:08.300Z,1.32
2019-06-07T05:50:44.924Z,0.93
2019-06-07T05:53:06.583Z,0.93
2019-06-07T05:55:35.256Z,1.10
2019-06-07T05:58:03.497Z,0.90
2019-06-07T06:00:34.578Z,0.90
2019-06-07T06:03:05.763Z,0.78
2019-06-07T06:05:37.585Z,0.72
2019-06-07T06:08:02.179Z,0.72
2019-06-07T06:10:30.238Z,0.80
2019-06-07T06:12:58.374Z,0.75
2019-06-07T06:15:41.791Z,0.78
2019-06-07T06:17:57.009Z,0.50
2019-06-07T06:20:32.993Z,0.55
2019-06-07T06:22:55.216Z,0.70
2019-06-07T06:25:33.031Z,0.70
2019-06-07T06:28:10.506Z,0.53
2019-06-07T06:30:22.947Z,0.60
2019-06-07T06:32:57.754Z,0.40
2019-06-07T06:35:20.963Z,0.60
2019-06-07T06:37:52.946Z,0.80
2019-06-07T06:40:18.957Z,0.98
2019-06-07T06:42:49.029Z,0.80
2019-06-07T06:45:17.377Z,0.80
2019-06-07T06:47:47.711Z,0.50
2019-06-07T06:50:15.575Z,0.40
2019-06-07T06:52:46.226Z,0.30
2019-06-07T06:55:13.736Z,0.50
2019-06-07T06:57:42.188Z,0.70
2019-06-07T07:00:12.807Z,0.80
2019-06-07T07:03:32.647Z,0.93
2019-06-07T07:05:11.521Z,0.70
2019-06-07T07:07:42.621Z,0.80
2019-06-07T07:10:11.528Z,0.60
2019-06-07T07:12:40.634Z,0.42
2019-06-07T07:15:10.377Z,0.50
2019-06-07T07:17:50.489Z,0.47
2019-06-07T07:20:08.473Z,0.50
2019-06-07T07:22:37.700Z,0.50
2019-06-07T07:25:06.596Z,0.60
2019-06-07T07:27:34.773Z,0.72
2019-06-07T07:30:35.255Z,0.65
2019-06-07T07:32:34.187Z,0.75
2019-06-07T07:35:02.351Z,0.40
2019-06-07T07:37:30.439Z,0.45
2019-06-07T07:40:09.467Z,0.40
2019-06-07T07:42:29.482Z,0.68
2019-06-07T07:44:57.642Z,0.62
2019-06-07T07:47:25.791Z,0.53
2019-06-07T07:49:58.510Z,0.60
2019-06-07T07:52:23.811Z,0.88
2019-06-07T07:54:52.818Z,0.70
2019-06-07T07:57:21.735Z,0.90
2019-06-07T08:00:07.726Z,1.20
2019-06-07T08:02:19.605Z,1.20
2019-06-07T08:07:17.569Z,1.10
2019-06-07T08:09:47.478Z,1.10
2019-06-07T08:12:15.509Z,1.70
2019-06-07T08:14:43.803Z,1.80
2019-06-07T08:17:11.929Z,1.40
2019-06-07T08:19:40.132Z,1.62
2019-06-07T08:22:08.328Z,1.45
2019-06-07T08:24:36.402Z,1.35
2019-06-07T08:27:24.727Z,1.30
2019-06-07T08:29:44.946Z,1.22
2019-06-07T08:32:05.153Z,1.10
2019-06-07T08:34:33.300Z,1.10
2019-06-07T08:37:02.254Z,1.00
2019-06-07T08:39:30.452Z,1.05
2019-06-07T08:42:14.118Z,1.20
2019-06-07T08:44:28.323Z,1.22
2019-06-07T08:47:15.964Z,1.00
2019-06-07T08:49:27.417Z,1.07
2019-06-07T08:52:03.077Z,0.93
2019-06-07T08:54:25.344Z,0.72
2019-06-07T08:56:57.406Z,0.85
2019-06-07T08:59:23.326Z,0.72
2019-06-07T09:01:52.088Z,0.70
2019-06-07T09:04:21.310Z,1.25
2019-06-07T09:07:14.831Z,1.00
2019-06-07T09:09:19.715Z,0.88
2019-06-07T09:11:47.857Z,0.88
2019-06-07T09:14:15.969Z,0.93
2019-06-07T09:16:44.118Z,0.62
2019-06-07T09:19:12.206Z,1.00
2019-06-07T09:21:40.378Z,1.50
2019-06-07T09:24:11.869Z,1.22
2019-06-07T09:26:38.361Z,0.80
2019-06-07T09:29:10.978Z,1.00
2019-06-07T09:31:51.867Z,0.98
2019-06-07T09:34:13.742Z,1.10
2019-06-07T09:36:35.842Z,1.00
2019-06-07T09:39:08.280Z,0.80
2019-06-07T09:41:47.415Z,0.70
2019-06-07T09:44:21.315Z,0.68
2019-06-07T09:46:35.246Z,0.88
2019-06-07T09:49:21.029Z,1.10
2019-06-07T09:51:33.370Z,0.80
2019-06-07T09:54:06.895Z,1.00
2019-06-07T09:56:31.331Z,0.80
2019-06-07T09:59:00.343Z,0.90
2019-06-07T10:01:29.300Z,0.98
2019-06-07T10:04:05.898Z,0.95
2019-06-07T10:06:28.566Z,1.00
2019-06-07T10:11:26.475Z,0.90
2019-06-07T10:13:54.627Z,1.30
2019-06-07T10:16:22.789Z,0.82
2019-06-07T10:18:50.885Z,1.05
2019-06-07T10:21:19.092Z,0.80
2019-06-07T10:23:47.205Z,0.68
2019-06-07T10:26:15.305Z,0.55
2019-06-07T10:28:43.429Z,0.72
2019-06-07T10:31:11.586Z,0.70
2019-06-07T10:33:39.697Z,0.88
2019-06-07T10:36:08.922Z,1.02
2019-06-07T10:38:37.012Z,1.15
2019-06-07T10:41:05.179Z,1.00
2019-06-07T10:43:33.392Z,0.70
2019-06-07T10:46:01.531Z,1.17
2019-06-07T10:48:29.649Z,0.90
2019-06-07T10:50:57.729Z,0.70
2019-06-07T10:53:25.814Z,0.90
2019-06-07T10:55:53.907Z,1.12
2019-06-07T10:58:23.058Z,0.90
2019-06-07T11:00:51.390Z,0.80
2019-06-07T11:03:19.743Z,0.60
2019-06-07T11:05:48.615Z,0.30
2019-06-07T11:08:16.716Z,0.50
2019-06-07T11:10:44.793Z,0.50
2019-06-07T11:13:12.887Z,0.57
2019-06-07T11:15:41.051Z,1.10
2019-06-07T11:18:10.252Z,1.10
2019-06-07T11:20:39.600Z,1.20
2019-06-07T11:23:08.310Z,1.12
2019-06-07T11:25:36.462Z,0.93
2019-06-07T11:28:06.221Z,0.85
2019-06-07T11:30:34.628Z,0.95
2019-06-07T11:33:02.876Z,0.82
2019-06-07T11:35:32.184Z,0.70
2019-06-07T11:38:00.831Z,1.02
2019-06-07T11:40:35.528Z,0.72
2019-06-07T11:42:58.887Z,1.10
2019-06-07T11:45:27.054Z,0.85
2019-06-07T11:47:55.150Z,0.70
2019-06-07T11:50:23.657Z,0.60
2019-06-07T11:52:51.806Z,0.88
2019-06-07T11:55:19.993Z,0.93
2019-06-07T11:57:48.090Z,0.70
2019-06-07T12:00:18.613Z,0.78
2019-06-07T12:02:47.630Z,0.50
2019-06-07T12:05:18.420Z,0.50
2019-06-07T12:07:45.809Z,0.50
2019-06-07T12:10:15.606Z,1.20
2019-06-07T12:12:43.769Z,0.80
2019-06-07T12:15:13.187Z,1.07
2019-06-07T12:17:41.446Z,0.80
2019-06-07T12:20:12.318Z,0.65
2019-06-07T12:22:39.620Z,0.70
2019-06-07T12:25:08.441Z,0.95
2019-06-07T12:27:36.615Z,0.95
2019-06-07T12:30:11.168Z,0.98
2019-06-07T12:32:37.905Z,1.10
2019-06-07T12:35:06.336Z,1.00
2019-06-07T12:37:43.770Z,0.80
2019-06-07T12:40:05.495Z,0.80
2019-06-07T12:42:33.701Z,1.40
2019-06-07T12:45:01.897Z,1.00
2019-06-07T12:47:30.111Z,1.10
2019-06-07T12:49:58.187Z,1.15
2019-06-07T12:52:26.320Z,0.98
2019-06-07T12:54:54.487Z,1.10
2019-06-07T12:57:24.054Z,1.10
2019-06-07T12:59:52.442Z,1.10
2019-06-07T13:02:22.070Z,1.45
2019-06-07T13:04:50.402Z,1.30
2019-06-07T13:07:19.998Z,0.80
2019-06-07T13:09:48.226Z,0.72
2019-06-07T13:12:17.538Z,1.10
2019-06-07T13:14:45.777Z,0.90
2019-06-07T13:17:13.936Z,0.90
2019-06-07T13:19:42.021Z,1.10
2019-06-07T13:22:10.199Z,1.20
2019-06-07T13:24:38.352Z,1.67
2019-06-07T13:27:06.517Z,1.50
2019-06-07T13:29:34.646Z,1.37
2019-06-07T13:32:02.811Z,1.12
2019-06-07T13:34:30.902Z,1.20
2019-06-07T13:37:00.126Z,1.10
2019-06-07T13:39:29.864Z,1.55
2019-06-07T13:41:58.071Z,1.80
2019-06-07T13:44:26.361Z,1.10
2019-06-07T13:46:54.541Z,1.30
2019-06-07T13:49:23.703Z,1.85
2019-06-07T13:51:51.899Z,1.42
2019-06-07T13:54:20.693Z,1.55
2019-06-07T13:57:01.358Z,1.20
2019-06-07T13:59:18.876Z,0.68
2019-06-07T14:01:47.436Z,1.00
2019-06-07T14:04:15.619Z,1.80
2019-06-07T14:06:44.783Z,1.57
2019-06-07T14:09:13.239Z,1.30
2019-06-07T14:11:50.384Z,1.50
2019-06-07T14:14:11.258Z,1.10
2019-06-07T14:16:39.351Z,1.22
2019-06-07T14:19:08.529Z,1.40
2019-06-07T14:21:36.671Z,1.07
2019-06-07T14:24:04.907Z,0.85
2019-06-07T14:26:32.984Z,1.17
2019-06-07T14:29:01.146Z,1.95
2019-06-07T14:31:30.282Z,1.25
2019-06-07T14:33:59.760Z,1.10
2019-06-07T14:36:28.918Z,1.70
2019-06-07T14:38:57.240Z,1.23
2019-06-07T14:41:25.415Z,1.00
2019-06-07T14:43:53.534Z,0.85
2019-06-07T14:46:21.734Z,1.25
2019-06-07T14:48:49.825Z,1.92
2019-06-07T14:51:17.962Z,1.77
2019-06-07T14:53:46.165Z,1.85
2019-06-07T14:56:14.410Z,1.45
2019-06-07T14:58:43.399Z,1.20
2019-06-07T15:01:11.866Z,1.40
2019-06-07T15:03:40.058Z,1.30
2019-06-07T15:06:08.220Z,1.80
2019-06-07T15:08:36.365Z,1.60
2019-06-07T15:11:04.543Z,1.60
2019-06-07T15:13:33.580Z,1.67
2019-06-07T15:16:01.888Z,2.08
2019-06-07T15:18:30.058Z,2.02
2019-06-07T15:20:58.218Z,1.77
2019-06-07T15:23:27.076Z,2.20
2019-06-07T15:25:55.220Z,1.55
2019-06-07T15:28:23.397Z,2.20
2019-06-07T15:30:51.473Z,1.70
2019-06-07T15:33:19.650Z,2.10
2019-06-07T15:35:47.832Z,2.20
2019-06-07T15:38:16.004Z,2.30
2019-06-07T15:40:45.104Z,2.33
2019-06-07T15:43:13.179Z,2.95
2019-06-07T15:45:41.333Z,3.50
2019-06-07T15:48:09.428Z,3.45
2019-06-07T15:50:38.362Z,3.40
2019-06-07T15:53:06.616Z,3.67
2019-06-07T15:55:37.632Z,3.45
2019-06-07T15:58:05.472Z,2.98
2019-06-07T16:00:33.537Z,3.40
2019-06-07T16:03:01.713Z,4.45
2019-06-07T16:05:29.858Z,3.42
2019-06-07T16:10:25.932Z,3.62
2019-06-07T16:13:00.168Z,3.52
2019-06-07T16:15:24.184Z,2.95
2019-06-07T16:17:52.344Z,3.52
2019-06-07T16:20:20.489Z,2.90
2019-06-07T16:22:48.564Z,3.80
2019-06-07T16:25:16.815Z,2.50
2019-06-07T16:27:44.970Z,2.40
2019-06-07T16:30:13.716Z,2.65
2019-06-07T16:32:43.875Z,2.58
2019-06-07T16:35:12.866Z,2.30
2019-06-07T16:37:41.384Z,3.40
2019-06-07T16:40:12.160Z,2.95
2019-06-07T16:42:40.693Z,3.55
2019-06-07T16:45:09.776Z,3.20
2019-06-07T16:47:40.323Z,2.12
2019-06-07T16:50:08.225Z,3.30
2019-06-07T16:52:37.252Z,4.03
2019-06-07T16:55:06.361Z,3.47
2019-06-07T16:57:34.472Z,3.52
2019-06-07T17:00:02.679Z,3.40
2019-06-07T17:02:31.149Z,2.98
2019-06-07T17:04:59.252Z,3.42
2019-06-07T17:07:27.722Z,3.90
2019-06-07T17:09:55.893Z,4.10
2019-06-07T17:12:24.055Z,4.22
2019-06-07T17:14:52.143Z,3.20
2019-06-07T17:17:20.226Z,3.50
2019-06-07T17:19:49.243Z,3.17
2019-06-07T17:22:17.504Z,3.70
2019-06-07T17:24:45.744Z,3.47
2019-06-07T17:27:13.835Z,2.62
2019-06-07T17:29:42.079Z,2.72
2019-06-07T17:32:10.180Z,2.83
2019-06-07T17:34:39.915Z,2.70
2019-06-07T17:37:08.096Z,2.95
2019-06-07T17:39:36.207Z,2.20
2019-06-07T17:42:04.421Z,2.70
2019-06-07T17:44:32.512Z,2.62
2019-06-07T17:47:00.589Z,2.50
2019-06-07T17:49:28.701Z,2.85
2019-06-07T17:51:56.918Z,3.10
2019-06-07T17:54:25.008Z,3.50
2019-06-07T17:56:53.435Z,3.02
2019-06-07T17:59:21.699Z,3.60
2019-06-07T18:02:10.195Z,2.90
2019-06-07T18:04:19.620Z,3.20
2019-06-07T18:06:49.516Z,2.80
2019-06-07T18:09:18.298Z,2.42
2019-06-07T18:11:46.381Z,3.00
2019-06-07T18:14:14.493Z,3.15
2019-06-07T18:16:44.392Z,2.60
2019-06-07T18:19:12.647Z,2.30
2019-06-07T18:21:40.762Z,2.92
2019-06-07T18:24:09.002Z,2.42
2019-06-07T18:26:37.158Z,3.10
2019-06-07T18:29:05.344Z,2.83
2019-06-07T18:31:33.482Z,2.33
2019-06-07T18:34:01.587Z,2.35
2019-06-07T18:36:29.770Z,1.80
2019-06-07T18:38:59.283Z,2.10
2019-06-07T18:41:27.710Z,2.52
2019-06-07T18:43:55.865Z,4.17
2019-06-07T18:46:24.055Z,3.52
2019-06-07T18:48:52.503Z,3.10
2019-06-07T18:51:20.638Z,3.22
2019-06-07T18:53:49.775Z,2.98
2019-06-07T18:56:18.108Z,3.83
2019-06-07T18:58:47.144Z,3.40
2019-06-07T19:01:15.421Z,2.60
2019-06-07T19:03:46.950Z,3.17
2019-06-07T19:06:13.415Z,2.20
2019-06-07T19:08:41.486Z,2.30
2019-06-07T19:11:09.935Z,2.80
2019-06-07T19:13:38.089Z,3.70
2019-06-07T19:16:06.217Z,3.05
2019-06-07T19:18:34.488Z,2.62
2019-06-07T19:21:02.642Z,2.60
2019-06-07T19:23:30.812Z,2.33
2019-06-07T19:25:58.880Z,2.30
2019-06-07T19:28:27.010Z,2.00
2019-06-07T19:30:55.155Z,2.08
2019-06-07T19:33:23.392Z,1.60
2019-06-07T19:35:51.620Z,2.37
2019-06-07T19:38:20.768Z,2.02
2019-06-07T19:40:48.932Z,1.75
2019-06-07T19:43:17.030Z,1.67
2019-06-07T19:45:45.155Z,1.80
2019-06-07T19:48:13.250Z,1.60
2019-06-07T19:50:41.424Z,1.67
2019-06-07T19:53:09.588Z,1.40
2019-06-07T19:55:37.748Z,1.70
2019-06-07T19:58:05.825Z,1.30
2019-06-07T20:00:34.088Z,1.67
2019-06-07T20:03:02.354Z,1.70
2019-06-07T20:05:33.733Z,1.50
2019-06-07T20:08:00.686Z,1.92
2019-06-07T20:10:28.927Z,1.87
2019-06-07T20:12:57.016Z,1.10
2019-06-07T20:15:28.893Z,0.72
2019-06-07T20:17:55.161Z,0.50
2019-06-07T20:20:24.022Z,0.62
2019-06-07T20:22:52.285Z,0.40
2019-06-07T20:25:20.854Z,0.80
2019-06-07T20:27:48.944Z,0.70
2019-06-07T20:30:17.365Z,0.40
2019-06-07T20:32:45.627Z,0.10
2019-06-07T20:35:13.797Z,0.10
2019-06-07T20:37:44.981Z,0.20
2019-06-07T20:40:23.312Z,0.13
2019-06-07T20:42:44.371Z,0.28
2019-06-07T20:45:12.506Z,0.10
2019-06-07T20:47:41.744Z,0.05
2019-06-07T20:50:10.479Z,0.10
2019-06-07T20:52:39.190Z,0.20
2019-06-07T20:55:09.376Z,0.10
2019-06-07T20:57:37.768Z,0.00
2019-06-07T21:00:14.649Z,0.05
2019-06-07T21:02:36.154Z,0.10
2019-06-07T21:05:07.437Z,0.10
2019-06-07T21:07:35.781Z,0.20
2019-06-07T21:10:05.750Z,0.00
2019-06-07T21:12:33.948Z,0.10
2019-06-07T21:15:06.514Z,0.08
2019-06-07T21:17:31.814Z,0.10
2019-06-07T21:20:00.515Z,0.10
2019-06-07T21:22:28.746Z,0.20
2019-06-07T21:24:56.893Z,0.15
2019-06-07T21:27:24.981Z,0.10
2019-06-07T21:29:53.138Z,0.00
2019-06-07T21:32:21.243Z,0.03
2019-06-07T21:34:49.405Z,0.13
2019-06-07T21:37:17.522Z,0.10
2019-06-07T21:39:45.662Z,0.00
2019-06-07T21:42:13.806Z,0.00
2019-06-07T21:44:41.892Z,0.00
2019-06-07T21:47:10.609Z,0.05
2019-06-07T21:49:38.756Z,0.03
2019-06-07T21:52:09.282Z,0.00
2019-06-07T21:57:05.385Z,0.00
2019-06-07T21:59:41.147Z,0.00
2019-06-07T22:02:11.697Z,0.00
2019-06-07T22:04:39.959Z,0.03
2019-06-07T22:07:10.104Z,0.00
2019-06-07T22:09:39.774Z,0.10
2019-06-07T22:12:14.308Z,0.00
2019-06-07T22:14:45.603Z,0.00
2019-06-07T22:17:19.371Z,0.10
2019-06-07T22:19:49.076Z,0.10
2019-06-07T22:22:17.247Z,0.10
2019-06-07T22:24:45.337Z,0.15
2019-06-07T22:27:13.540Z,0.10
2019-06-07T22:29:41.795Z,0.00
2019-06-07T22:32:10.935Z,0.10
2019-06-07T22:34:39.319Z,0.25
2019-06-07T22:37:09.274Z,0.00
2019-06-07T22:39:37.517Z,0.10
2019-06-07T22:42:07.227Z,0.10
2019-06-07T22:44:35.356Z,0.10
2019-06-07T22:47:03.535Z,0.20
2019-06-07T22:49:32.799Z,0.20
2019-06-07T22:52:08.854Z,0.10
2019-06-07T22:54:30.767Z,0.20
2019-06-07T22:57:00.591Z,0.10
2019-06-07T22:59:28.679Z,0.10
2019-06-07T23:01:56.802Z,0.08
2019-06-07T23:04:24.949Z,0.10
2019-06-07T23:06:53.333Z,0.10
2019-06-07T23:09:21.439Z,0.00
2019-06-07T23:11:49.497Z,0.10
2019-06-07T23:14:17.645Z,0.10
2019-06-07T23:16:54.750Z,0.00
2019-06-07T23:19:16.224Z,0.00
2019-06-07T23:21:44.848Z,0.10
2019-06-07T23:24:14.157Z,0.00
2019-06-07T23:26:42.685Z,0.00
2019-06-07T23:29:10.778Z,0.15
2019-06-07T23:31:38.883Z,0.00
2019-06-07T23:34:07.018Z,0.03
2019-06-07T23:36:35.254Z,0.03
2019-06-07T23:39:04.941Z,0.00
2019-06-07T23:41:33.193Z,0.10
2019-06-07T23:44:01.252Z,0.00
2019-06-07T23:46:29.400Z,0.10
2019-06-07T23:48:57.491Z,0.00
2019-06-07T23:51:25.627Z,0.00
2019-06-07T23:53:53.775Z,0.00
2019-06-07T23:56:22.301Z,0.05
2019-06-07T23:58:51.655Z,0.10
